Terminal Aerodrome Forecast
Issued by NWS

Home | Current Version | Previous Version | Text Only | Print | Product List | Glossary On
Versions: 1 2 3 4 5 6 7 8 9 10 11 12 13 14 15 16 17 18
000
FTUS43 KILX 181720
TAFCMI
TAF
KCMI 181720Z 1818/1918 15013KT P6SM BKN250
     FM190200 16013KT P6SM SCT070 BKN250 WS020/19050KT
     FM190700 18012KT 6SM -SHRA SCT008 OVC025 WS020/21045KT
     FM191300 19015G24KT 2SM SHRA BR OVC008=

USA.gov is the U.S. government's official web portal to all federal, state and local government web resources and services.